createdAt,value
2017-09-26T00:00:03.786Z,13.48
2017-09-26T00:02:30.457Z,13.42
2017-09-26T00:07:52.632Z,13.92
2017-09-26T00:10:20.239Z,13.87
2017-09-26T00:12:47.047Z,13.73
2017-09-26T00:15:14.704Z,13.66
2017-09-26T00:17:42.219Z,13.71
2017-09-26T00:20:09.448Z,13.77
2017-09-26T00:22:36.521Z,13.74
2017-09-26T00:25:04.100Z,13.42
2017-09-26T00:30:35.852Z,13.08
2017-09-26T00:33:18.969Z,13.17
2017-09-26T00:35:46.897Z,13.14
2017-09-26T00:38:15.328Z,12.93
2017-09-26T00:40:42.175Z,12.96
2017-09-26T00:43:09.943Z,12.85
2017-09-26T00:45:36.828Z,12.79
2017-09-26T00:50:59.469Z,12.75
2017-09-26T00:53:26.185Z,13.03
2017-09-26T00:55:52.994Z,13.08
2017-09-26T00:58:22.050Z,12.81
2017-09-26T01:00:48.932Z,12.69
2017-09-26T01:03:21.380Z,12.53
2017-09-26T01:08:54.261Z,12.39
2017-09-26T01:11:21.960Z,12.40
2017-09-26T01:13:48.667Z,12.26
2017-09-26T01:18:48.312Z,12.28
2017-09-26T01:21:16.099Z,12.59
2017-09-26T01:26:38.530Z,12.42
2017-09-26T01:29:05.250Z,12.39
2017-09-26T01:31:32.116Z,12.33
2017-09-26T01:33:58.969Z,12.29
2017-09-26T01:39:29.683Z,12.54
2017-09-26T01:41:57.247Z,12.70
2017-09-26T01:44:27.875Z,12.82
2017-09-26T01:46:55.200Z,12.90
2017-09-26T01:49:21.692Z,12.66
2017-09-26T01:51:49.329Z,12.45
2017-09-26T01:54:26.240Z,12.29
2017-09-26T01:56:59.151Z,12.28
2017-09-26T01:59:27.887Z,12.25
2017-09-26T02:01:54.658Z,12.30
2017-09-26T02:04:21.469Z,12.25
2017-09-26T02:06:49.607Z,12.27
2017-09-26T02:09:16.543Z,12.18
2017-09-26T02:11:43.239Z,12.23
2017-09-26T02:14:09.796Z,12.09
2017-09-26T02:16:36.335Z,12.00
2017-09-26T02:19:15.257Z,11.74
2017-09-26T02:24:18.635Z,11.83
2017-09-26T02:26:45.368Z,11.92
2017-09-26T02:29:12.312Z,11.77
2017-09-26T02:31:39.940Z,11.82
2017-09-26T02:34:06.740Z,11.72
2017-09-26T02:36:34.119Z,11.61
2017-09-26T02:39:01.586Z,11.69
2017-09-26T02:41:28.562Z,11.53
2017-09-26T02:43:56.259Z,11.74
2017-09-26T02:46:23.796Z,11.77
2017-09-26T02:48:51.695Z,11.61
2017-09-26T02:51:18.331Z,11.54
2017-09-26T02:53:47.936Z,11.55
2017-09-26T02:56:14.729Z,11.37
2017-09-26T02:58:42.604Z,11.63
2017-09-26T03:01:09.292Z,11.72
2017-09-26T03:03:35.920Z,11.72
2017-09-26T03:06:13.942Z,11.74
2017-09-26T03:08:41.511Z,11.59
2017-09-26T03:11:08.058Z,11.79
2017-09-26T03:13:34.680Z,11.82
2017-09-26T03:16:01.378Z,11.60
2017-09-26T03:18:27.975Z,11.32
2017-09-26T03:20:55.484Z,11.29
2017-09-26T03:23:23.422Z,11.43
2017-09-26T03:25:51.011Z,11.33
2017-09-26T03:28:18.692Z,11.34
2017-09-26T03:38:04.616Z,11.23
2017-09-26T03:43:28.663Z,11.06
2017-09-26T03:45:55.197Z,11.13
2017-09-26T03:48:21.907Z,11.24
2017-09-26T03:50:51.546Z,11.41
2017-09-26T03:53:18.247Z,11.50
2017-09-26T03:55:45.612Z,11.79
2017-09-26T03:58:12.436Z,11.74
2017-09-26T04:00:54.007Z,11.84
2017-09-26T04:03:23.841Z,11.66
2017-09-26T04:05:50.641Z,11.64
2017-09-26T04:08:17.551Z,11.70
2017-09-26T04:10:44.344Z,11.59
2017-09-26T04:13:11.903Z,11.42
2017-09-26T04:15:38.574Z,11.29
2017-09-26T04:18:05.902Z,11.33
2017-09-26T04:20:32.597Z,11.38
2017-09-26T04:23:04.293Z,11.41
2017-09-26T04:25:32.098Z,11.49
2017-09-26T04:27:59.035Z,11.24
2017-09-26T04:30:36.074Z,11.02
2017-09-26T04:33:05.581Z,10.78
2017-09-26T04:35:32.447Z,10.68
2017-09-26T04:37:59.232Z,10.91
2017-09-26T04:40:26.519Z,11.05
2017-09-26T04:42:53.711Z,11.22
2017-09-26T04:56:53.347Z,10.74
2017-09-26T04:59:19.888Z,10.79
2017-09-26T05:01:46.338Z,10.82
2017-09-26T05:04:12.964Z,10.57
2017-09-26T05:06:39.451Z,10.66
2017-09-26T05:09:06.126Z,10.76
2017-09-26T05:11:33.436Z,10.87
2017-09-26T05:13:59.982Z,10.87
2017-09-26T05:16:26.644Z,10.89
2017-09-26T05:18:53.388Z,10.77
2017-09-26T05:21:21.564Z,10.76
2017-09-26T05:23:49.411Z,10.73
2017-09-26T05:26:16.056Z,10.66
2017-09-26T05:28:43.233Z,10.72
2017-09-26T05:34:14.411Z,10.56
2017-09-26T05:36:42.283Z,10.48
2017-09-26T05:39:25.182Z,10.76
2017-09-26T05:41:52.406Z,10.75
2017-09-26T05:44:19.004Z,10.64
2017-09-26T05:46:46.433Z,10.75
2017-09-26T05:49:14.890Z,10.89
2017-09-26T05:51:41.632Z,11.03
2017-09-26T05:54:08.160Z,11.26
2017-09-26T05:59:30.751Z,11.40
2017-09-26T06:01:58.243Z,11.48
2017-09-26T06:04:25.622Z,11.48
2017-09-26T06:06:52.822Z,11.59
2017-09-26T06:09:19.731Z,11.63
2017-09-26T06:11:56.768Z,11.70
2017-09-26T06:14:23.547Z,11.54
2017-09-26T06:16:50.596Z,11.64
2017-09-26T06:19:17.564Z,11.65
2017-09-26T06:21:44.296Z,11.47
2017-09-26T06:24:11.852Z,11.65
2017-09-26T06:26:40.837Z,11.63
2017-09-26T06:32:22.124Z,11.55
2017-09-26T06:34:50.001Z,11.67
2017-09-26T06:37:20.335Z,11.84
2017-09-26T06:39:47.180Z,12.01
2017-09-26T06:42:13.938Z,12.12
2017-09-26T06:44:41.422Z,12.33
2017-09-26T06:47:08.607Z,12.34
2017-09-26T06:52:36.829Z,12.54
2017-09-26T06:55:03.569Z,12.65
2017-09-26T07:00:27.730Z,13.02
2017-09-26T07:02:54.648Z,13.03
2017-09-26T07:05:21.930Z,12.85
2017-09-26T07:07:48.561Z,12.86
2017-09-26T07:10:16.020Z,12.73
2017-09-26T07:12:42.545Z,12.85
2017-09-26T07:15:09.112Z,13.15
2017-09-26T07:17:40.593Z,13.37
2017-09-26T07:20:08.192Z,13.45
2017-09-26T07:22:34.916Z,13.40
2017-09-26T07:25:01.625Z,13.54
2017-09-26T07:27:29.979Z,13.68
2017-09-26T07:29:56.752Z,13.70
2017-09-26T07:32:24.257Z,13.85
2017-09-26T07:34:50.813Z,13.79
2017-09-26T07:37:17.395Z,13.89
2017-09-26T08:25:22.851Z,14.99
2017-09-26T08:27:50.360Z,15.15
2017-09-26T08:30:17.023Z,15.33
2017-09-26T08:35:42.210Z,15.62
2017-09-26T08:38:11.524Z,15.72
2017-09-26T08:40:38.336Z,15.81
2017-09-26T08:43:06.768Z,15.82
2017-09-26T08:45:34.568Z,15.91
2017-09-26T08:48:02.082Z,16.02
2017-09-26T08:50:29.541Z,16.10
2017-09-26T09:04:47.229Z,16.11
2017-09-26T09:07:14.278Z,16.21
2017-09-26T09:12:41.252Z,16.59
2017-09-26T09:15:18.765Z,16.69
2017-09-26T09:17:46.329Z,16.71
2017-09-26T09:20:13.784Z,16.67
2017-09-26T09:22:43.644Z,16.67
2017-09-26T09:25:11.160Z,16.72
2017-09-26T09:27:38.555Z,16.79
2017-09-26T09:30:05.174Z,16.82
2017-09-26T09:32:32.573Z,16.90
2017-09-26T09:34:59.033Z,16.93
2017-09-26T09:37:26.208Z,17.00
2017-09-26T09:39:52.896Z,17.11
2017-09-26T09:42:20.376Z,17.14
2017-09-26T09:44:47.738Z,17.09
2017-09-26T09:47:14.295Z,17.23
2017-09-26T09:49:42.959Z,17.32
2017-09-26T09:52:10.443Z,17.40
2017-09-26T10:06:04.474Z,17.33
2017-09-26T10:08:30.965Z,17.53
2017-09-26T10:26:28.656Z,17.89
2017-09-26T10:28:56.299Z,17.99
2017-09-26T10:31:22.899Z,17.94
2017-09-26T10:33:49.508Z,18.16
2017-09-26T10:38:48.770Z,18.42
2017-09-26T10:41:15.272Z,18.32
2017-09-26T10:43:42.603Z,18.46
2017-09-26T10:57:19.228Z,18.70
2017-09-26T10:59:46.742Z,18.80
2017-09-26T11:02:13.137Z,19.00
2017-09-26T11:04:41.162Z,19.18
2017-09-26T11:07:07.748Z,19.32
2017-09-26T11:09:35.044Z,19.26
2017-09-26T11:12:01.516Z,19.46
2017-09-26T11:14:29.096Z,19.57
2017-09-26T11:16:56.510Z,19.68
2017-09-26T11:19:23.344Z,19.74
2017-09-26T11:21:49.828Z,19.73
2017-09-26T11:27:15.108Z,19.74
2017-09-26T11:29:41.681Z,19.85
2017-09-26T11:32:08.132Z,19.94
2017-09-26T11:34:35.364Z,19.94
2017-09-26T11:39:58.548Z,19.86
2017-09-26T11:57:42.367Z,20.33
2017-09-26T12:00:08.924Z,20.35
2017-09-26T12:08:04.448Z,20.46
2017-09-26T12:10:32.224Z,20.33
2017-09-26T12:13:08.055Z,20.28
2017-09-26T12:15:34.499Z,20.24
2017-09-26T12:18:01.116Z,20.14
2017-09-26T12:20:37.977Z,20.19
2017-09-26T12:23:06.023Z,20.24
2017-09-26T12:25:34.594Z,20.25
2017-09-26T12:30:44.249Z,20.42
2017-09-26T12:33:12.912Z,20.80
2017-09-26T12:35:39.727Z,21.02
2017-09-26T12:53:23.351Z,21.01
2017-09-26T12:55:50.063Z,21.05
2017-09-26T13:01:00.944Z,20.96
2017-09-26T13:03:28.323Z,20.95
2017-09-26T13:05:54.901Z,21.07
2017-09-26T13:08:21.439Z,21.17
2017-09-26T13:10:48.267Z,21.15
2017-09-26T13:13:15.969Z,21.16
2017-09-26T13:15:43.281Z,21.25
2017-09-26T13:18:10.148Z,21.33
2017-09-26T13:20:36.576Z,21.35
2017-09-26T13:23:09.552Z,21.24
2017-09-26T13:25:46.118Z,21.23
2017-09-26T13:28:13.991Z,21.19
2017-09-26T13:30:44.188Z,21.27
2017-09-26T13:33:11.221Z,21.37
2017-09-26T13:35:38.211Z,21.34
2017-09-26T13:38:16.060Z,21.27
2017-09-26T13:40:43.367Z,21.34
2017-09-26T13:43:11.039Z,21.00
2017-09-26T13:45:37.698Z,21.30
2017-09-26T13:48:06.996Z,21.29
2017-09-26T13:50:34.552Z,21.19
2017-09-26T13:53:01.336Z,21.20
2017-09-26T13:55:27.689Z,21.28
2017-09-26T13:57:55.887Z,21.30
2017-09-26T14:00:22.739Z,21.19
2017-09-26T14:02:52.292Z,20.96
2017-09-26T14:05:18.861Z,20.80
2017-09-26T14:07:45.441Z,20.91
2017-09-26T14:10:13.396Z,20.87
2017-09-26T14:12:40.573Z,20.85
2017-09-26T14:15:08.722Z,20.98
2017-09-26T14:17:36.497Z,21.11
2017-09-26T14:20:03.734Z,21.27
2017-09-26T14:25:24.663Z,21.46
2017-09-26T14:30:48.480Z,21.59
2017-09-26T14:33:15.190Z,21.58
2017-09-26T14:35:55.356Z,21.58
2017-09-26T14:38:24.772Z,21.58
2017-09-26T14:40:51.346Z,21.62
2017-09-26T14:43:18.745Z,21.61
2017-09-26T14:45:46.162Z,21.52
2017-09-26T14:48:12.812Z,21.40
2017-09-26T14:50:40.079Z,21.47
2017-09-26T14:56:07.777Z,21.65
2017-09-26T14:58:34.331Z,21.80
2017-09-26T15:01:03.687Z,21.80
2017-09-26T15:03:30.244Z,21.93
2017-09-26T15:05:57.699Z,22.01
2017-09-26T15:08:25.080Z,21.97
2017-09-26T15:10:52.066Z,21.94
2017-09-26T15:13:18.803Z,21.85
2017-09-26T15:15:55.493Z,21.81
2017-09-26T15:18:22.251Z,21.61
2017-09-26T15:23:58.259Z,21.20
2017-09-26T15:29:05.701Z,20.89
2017-09-26T15:31:32.510Z,20.73
2017-09-26T15:34:01.008Z,20.72
2017-09-26T15:36:28.508Z,20.62
2017-09-26T15:38:55.232Z,20.43
2017-09-26T15:41:21.924Z,20.43
2017-09-26T15:43:49.236Z,20.23
2017-09-26T15:46:16.904Z,20.16
2017-09-26T15:48:45.336Z,20.17
2017-09-26T15:51:12.866Z,20.08
2017-09-26T15:53:39.575Z,20.00
2017-09-26T15:56:06.153Z,19.96
2017-09-26T15:58:35.816Z,19.84
2017-09-26T16:05:50.790Z,19.40
2017-09-26T16:08:17.521Z,19.38
2017-09-26T16:10:45.161Z,19.24
2017-09-26T16:13:11.885Z,19.32
2017-09-26T16:15:38.452Z,19.28
2017-09-26T16:35:31.138Z,18.47
2017-09-26T16:37:57.876Z,18.50
2017-09-26T16:40:24.340Z,18.62
2017-09-26T16:42:51.811Z,18.53
2017-09-26T16:45:19.355Z,18.45
2017-09-26T16:47:49.788Z,18.51
2017-09-26T16:50:16.412Z,18.36
2017-09-26T16:52:43.884Z,18.30
2017-09-26T16:55:11.294Z,18.26
2017-09-26T17:00:13.716Z,18.30
2017-09-26T17:02:40.635Z,18.17
2017-09-26T17:05:07.387Z,18.24
2017-09-26T17:07:35.587Z,18.13
2017-09-26T17:45:49.760Z,16.72
2017-09-26T17:48:18.260Z,16.67
2017-09-26T17:50:46.181Z,16.56
2017-09-26T17:53:13.044Z,16.77
2017-09-26T17:55:44.640Z,16.88
2017-09-26T18:01:05.626Z,16.78
2017-09-26T18:03:47.263Z,16.81
2017-09-26T18:06:14.077Z,16.82
2017-09-26T18:08:41.398Z,16.78
2017-09-26T18:16:55.983Z,15.80
2017-09-26T18:22:18.221Z,15.58
2017-09-26T18:24:45.611Z,15.53
2017-09-26T18:27:12.364Z,15.48
2017-09-26T18:33:13.314Z,15.28
2017-09-26T18:35:40.103Z,15.29
2017-09-26T18:41:00.887Z,15.54
2017-09-26T18:43:28.395Z,15.33
2017-09-26T18:45:55.220Z,15.13
2017-09-26T18:48:22.209Z,14.82
2017-09-26T18:50:50.794Z,14.70
2017-09-26T18:53:32.631Z,14.67
2017-09-26T18:55:59.121Z,14.70
2017-09-26T18:58:25.650Z,14.74
2017-09-26T19:00:52.310Z,14.85
2017-09-26T19:03:20.628Z,14.79
2017-09-26T19:05:49.374Z,14.80
2017-09-26T19:08:16.122Z,14.76
2017-09-26T19:10:57.754Z,14.73
2017-09-26T19:13:25.800Z,14.74
2017-09-26T19:15:52.604Z,14.87
2017-09-26T19:18:19.175Z,14.80
2017-09-26T19:23:42.932Z,14.67
2017-09-26T19:26:13.840Z,14.94
2017-09-26T19:28:41.111Z,15.20
2017-09-26T19:31:07.795Z,15.40
2017-09-26T19:33:38.331Z,15.40
2017-09-26T19:36:05.839Z,15.45
2017-09-26T19:38:47.654Z,15.32
2017-09-26T19:41:14.283Z,15.36
2017-09-26T19:43:42.077Z,15.29
2017-09-26T20:00:18.303Z,14.65
